aviador You're here:

PATO Decoded Metar

PORTAGE GLACIER in AK, USA
Report Time2017-04-24 12:53:00
UTC Time2017-04-24 13:16:21
Flight Rules vfr VFR
Wind070° at 09 kt
W.Rank070° ranks 15
Current wind is below 070° avg. (9.6)
Visibility9999 m
Phenomena:N/A
Clouds:Scattered 040 Hf
Scattered 060 Hf
Overcast 075 Hf
Expected CloudBase > 2,400 ft AGL from Temp-Dew spread
Ceiling7,500 ft
Temp06°C (ISA -9)
Dew Point00°C (66% RH)
AAT0.8°C
QNH1005 hPa
Density Alt-600 ft
Elevation102 ft
Report Wrong Elevation
Raw Report
PATO 241253Z AUTO 07009KT 10SM SCT040 SCT060 OVC075 06/00 A2967
RMK AO2 SLP048 T00610000 TSNO=

Extra information for PATO:More info

Metar Taf Metar & Taf Last 4 Metars F.Rules Stats Wind Profile Meteogram Temp Stats Airport Information Weather charts Add Link Nearby VenuesMetar ALERT Operation Metar Decoded Social comments

AIRNAV info for PATO